createdAt,value
2023-01-19T00:07:35.897Z,8
2023-01-19T00:22:45.745Z,8.4
2023-01-19T00:37:55.584Z,9.8
2023-01-19T00:53:04.289Z,9.7
2023-01-19T01:08:13.793Z,8.6
2023-01-19T01:23:23.433Z,8.4
2023-01-19T01:38:33.471Z,7.9
2023-01-19T01:53:43.185Z,8
2023-01-19T02:08:52.425Z,8.2
2023-01-19T02:24:01.831Z,7.3
2023-01-19T02:39:11.831Z,7.6
2023-01-19T02:54:21.935Z,8
2023-01-19T03:09:31.168Z,8.3
2023-01-19T03:24:39.786Z,8.3
2023-01-19T03:39:49.143Z,8.8
2023-01-19T03:54:58.895Z,8.1
2023-01-19T04:10:08.756Z,8.2
2023-01-19T04:25:17.545Z,7.4
2023-01-19T04:40:26.955Z,7.2
2023-01-19T04:55:37.883Z,8.1
2023-01-19T05:10:47.567Z,7.6
2023-01-19T05:25:57.028Z,7.6
2023-01-19T05:41:06.553Z,7.1
2023-01-19T05:56:16.574Z,8
2023-01-19T06:11:35.408Z,8.1
2023-01-19T06:26:47.686Z,7.4
2023-01-19T06:41:56.135Z,6.8
2023-01-19T06:57:06.060Z,7.1
2023-01-19T07:12:15.999Z,8.8
2023-01-19T07:27:25.585Z,7.6
2023-01-19T07:42:35.037Z,7.4
2023-01-19T07:57:44.078Z,7.6
2023-01-19T08:12:53.861Z,7
2023-01-19T08:28:03.523Z,7.1
2023-01-19T08:43:13.458Z,6.5
2023-01-19T08:58:23.256Z,5.5
2023-01-19T09:13:33.012Z,6.5
2023-01-19T09:28:42.724Z,6.5
2023-01-19T09:43:52.342Z,6
2023-01-19T09:59:01.655Z,6
2023-01-19T10:14:11.482Z,5.9
2023-01-19T10:29:21.237Z,6.6
2023-01-19T10:44:31.268Z,6
2023-01-19T10:59:41.444Z,5.6
2023-01-19T11:14:51.119Z,6.2
2023-01-19T11:30:00.958Z,6.4
2023-01-19T11:45:09.938Z,7
2023-01-19T12:00:19.491Z,7.8
2023-01-19T12:15:28.698Z,8.3
2023-01-19T12:30:38.406Z,8.6
2023-01-19T12:45:48.793Z,7.8
2023-01-19T13:00:58.886Z,9
2023-01-19T13:16:09.085Z,8.8
2023-01-19T13:31:18.540Z,9.7
2023-01-19T13:46:28.810Z,9.2
2023-01-19T14:01:39.361Z,9.1
2023-01-19T14:16:50.713Z,7.6
2023-01-19T14:32:00.500Z,8.1
2023-01-19T14:47:10.607Z,8
2023-01-19T15:02:20.328Z,7.8
2023-01-19T15:17:30.661Z,7
2023-01-19T15:32:40.283Z,6.8
2023-01-19T15:47:49.573Z,6.5
2023-01-19T16:02:58.909Z,7.3
2023-01-19T16:18:08.661Z,8
2023-01-19T16:33:17.169Z,13.5
2023-01-19T16:48:26.391Z,9.8
2023-01-19T17:03:35.480Z,10.4
2023-01-19T17:18:45.147Z,11.3
2023-01-19T17:33:54.363Z,11.6
2023-01-19T17:49:03.736Z,12
2023-01-19T18:04:13.150Z,12.9
2023-01-19T18:19:23.091Z,15
2023-01-19T18:34:32.307Z,14.2
2023-01-19T18:49:41.535Z,14.9
2023-01-19T19:04:50.277Z,16.6
2023-01-19T19:19:59.731Z,17.3
2023-01-19T19:35:09.578Z,18.9
2023-01-19T19:50:18.604Z,22.4
2023-01-19T20:05:28.011Z,23.1
2023-01-19T20:20:37.235Z,24.2
2023-01-19T20:35:46.895Z,25.4
2023-01-19T20:50:55.959Z,24.8
2023-01-19T21:06:05.707Z,27.4
2023-01-19T21:21:31.078Z,26.2
2023-01-19T21:36:41.473Z,26.2
2023-01-19T21:51:50.848Z,26.9
2023-01-19T22:07:00.693Z,27.5
2023-01-19T22:22:10.364Z,28.3
2023-01-19T22:37:20.117Z,29.2
2023-01-19T22:52:30.211Z,28.1
2023-01-19T23:07:39.556Z,29.2
2023-01-19T23:22:47.884Z,28.4
2023-01-19T23:37:57.281Z,27.7
2023-01-19T23:53:06.788Z,28.6
